createdAt,value
2024-03-26T00:02:05.242Z,75.18
2024-03-26T00:04:33.213Z,75.22
2024-03-26T00:07:01.134Z,75.30
2024-03-26T00:09:29.148Z,75.35
2024-03-26T00:11:57.036Z,75.30
2024-03-26T00:14:25.201Z,75.31
2024-03-26T00:16:53.252Z,75.50
2024-03-26T00:19:21.122Z,75.61
2024-03-26T00:21:48.982Z,75.17
2024-03-26T00:24:17.258Z,74.96
2024-03-26T00:26:45.133Z,74.90
2024-03-26T00:29:12.986Z,74.89
2024-03-26T00:31:40.856Z,74.65
2024-03-26T00:34:08.946Z,74.52
2024-03-26T00:36:37.311Z,74.21
2024-03-26T00:39:05.166Z,74.14
2024-03-26T00:41:33.031Z,74.19
2024-03-26T00:44:01.307Z,74.57
2024-03-26T00:46:29.480Z,74.94
2024-03-26T00:48:57.345Z,75.76
2024-03-26T00:51:25.415Z,76.20
2024-03-26T00:53:53.234Z,76.46
2024-03-26T00:56:21.151Z,76.82
2024-03-26T00:58:49.010Z,76.82
2024-03-26T01:01:16.932Z,76.77
2024-03-26T01:03:44.844Z,76.76
2024-03-26T01:06:13.019Z,76.65
2024-03-26T01:08:40.992Z,76.60
2024-03-26T01:11:08.958Z,76.56
2024-03-26T01:13:36.819Z,76.41
2024-03-26T01:16:06.250Z,76.07
2024-03-26T01:18:34.188Z,76.04
2024-03-26T01:21:02.087Z,76.04
2024-03-26T01:23:30.027Z,75.89
2024-03-26T01:25:57.995Z,75.61
2024-03-26T01:28:25.861Z,75.63
2024-03-26T01:30:53.720Z,75.80
2024-03-26T01:33:21.688Z,75.87
2024-03-26T01:35:55.946Z,75.83
2024-03-26T01:38:23.869Z,75.71
2024-03-26T01:40:51.836Z,75.60
2024-03-26T01:43:19.701Z,75.49
2024-03-26T01:45:47.667Z,74.97
2024-03-26T01:48:15.530Z,74.61
2024-03-26T01:50:43.511Z,74.58
2024-03-26T01:53:11.673Z,74.07
2024-03-26T01:55:39.744Z,73.86
2024-03-26T01:58:08.120Z,74.02
2024-03-26T02:00:36.730Z,73.93
2024-03-26T02:03:04.672Z,73.85
2024-03-26T02:05:32.646Z,73.97
2024-03-26T02:08:00.718Z,73.75
2024-03-26T02:10:28.681Z,73.87
2024-03-26T02:12:56.542Z,73.87
2024-03-26T02:15:24.513Z,73.61
2024-03-26T02:17:52.374Z,73.99
2024-03-26T02:20:22.596Z,74.12
2024-03-26T02:22:57.209Z,73.79
2024-03-26T02:25:25.083Z,74.09
2024-03-26T02:27:52.945Z,73.88
2024-03-26T02:30:21.028Z,73.96
2024-03-26T02:32:48.905Z,74.05
2024-03-26T02:35:16.851Z,73.72
2024-03-26T02:37:44.820Z,73.56
2024-03-26T02:40:13.502Z,73.33
2024-03-26T02:42:41.369Z,73.34
2024-03-26T02:45:10.569Z,73.35
2024-03-26T02:47:38.432Z,73.27
2024-03-26T02:50:07.012Z,73.38
2024-03-26T02:52:36.717Z,73.27
2024-03-26T02:55:05.201Z,73.18
2024-03-26T02:57:33.066Z,73.17
2024-03-26T03:00:01.040Z,73.10
2024-03-26T03:02:29.116Z,73.16
2024-03-26T03:04:56.971Z,73.10
2024-03-26T03:07:24.852Z,73.43
2024-03-26T03:09:52.706Z,73.69
2024-03-26T03:12:20.565Z,73.60
2024-03-26T03:14:48.443Z,73.42
2024-03-26T03:17:16.356Z,73.53
2024-03-26T03:19:44.161Z,73.56
2024-03-26T03:22:12.539Z,73.70
2024-03-26T03:24:40.529Z,73.67
2024-03-26T03:27:08.358Z,73.40
2024-03-26T03:29:36.240Z,73.12
2024-03-26T03:32:04.821Z,73.11
2024-03-26T03:34:32.889Z,73.00
2024-03-26T03:37:00.762Z,73.19
2024-03-26T03:39:28.724Z,73.21
2024-03-26T03:41:56.588Z,73.12
2024-03-26T03:44:24.656Z,73.29
2024-03-26T03:46:52.523Z,73.38
2024-03-26T03:49:20.388Z,73.40
2024-03-26T03:51:48.259Z,73.39
2024-03-26T03:54:16.116Z,73.21
2024-03-26T03:56:44.108Z,72.85
2024-03-26T03:59:11.961Z,72.89
2024-03-26T04:01:39.926Z,72.86
2024-03-26T04:04:07.993Z,72.84
2024-03-26T04:06:36.481Z,72.94
2024-03-26T04:09:05.771Z,72.90
2024-03-26T04:11:35.884Z,72.85
2024-03-26T04:14:04.080Z,72.92
2024-03-26T04:16:32.031Z,72.95
2024-03-26T04:18:59.900Z,72.92
2024-03-26T04:21:27.759Z,72.84
2024-03-26T04:23:56.236Z,72.89
2024-03-26T04:26:24.103Z,72.81
2024-03-26T04:28:52.075Z,72.89
2024-03-26T04:31:19.937Z,72.86
2024-03-26T04:33:47.686Z,73.05
2024-03-26T04:36:15.562Z,73.11
2024-03-26T04:38:43.637Z,73.36
2024-03-26T04:41:11.497Z,73.70
2024-03-26T04:43:39.364Z,74.01
2024-03-26T04:46:07.236Z,74.12
2024-03-26T04:48:35.133Z,74.36
2024-03-26T04:51:03.270Z,74.24
2024-03-26T04:53:31.132Z,73.92
2024-03-26T04:55:59.315Z,73.70
2024-03-26T04:58:27.272Z,73.53
2024-03-26T05:00:55.037Z,73.43
2024-03-26T05:03:23.002Z,73.18
2024-03-26T05:05:50.931Z,73.40
2024-03-26T05:08:18.838Z,73.66
2024-03-26T05:10:47.122Z,73.61
2024-03-26T05:13:16.015Z,73.58
2024-03-26T05:15:43.823Z,73.63
2024-03-26T05:18:11.833Z,73.51
2024-03-26T05:20:39.700Z,73.37
2024-03-26T05:23:07.667Z,73.92
2024-03-26T05:25:38.008Z,74.42
2024-03-26T05:28:06.438Z,74.41
2024-03-26T05:30:34.215Z,74.36
2024-03-26T05:33:02.507Z,74.57
2024-03-26T05:35:31.192Z,74.63
2024-03-26T05:38:01.451Z,74.76
2024-03-26T05:40:30.006Z,74.69
2024-03-26T05:42:57.859Z,74.78
2024-03-26T05:45:25.656Z,74.80
2024-03-26T05:47:53.832Z,74.98
2024-03-26T05:50:22.068Z,74.88
2024-03-26T05:52:50.213Z,74.96
2024-03-26T05:55:18.414Z,75.25
2024-03-26T05:57:46.280Z,74.99
2024-03-26T06:00:15.228Z,75.06
2024-03-26T06:02:43.162Z,75.27
2024-03-26T06:05:11.208Z,75.41
2024-03-26T06:07:39.086Z,75.48
2024-03-26T06:10:07.612Z,75.63
2024-03-26T06:12:35.532Z,76.02
2024-03-26T06:15:03.808Z,76.17
2024-03-26T06:17:31.778Z,76.11
2024-03-26T06:19:59.630Z,76.25
2024-03-26T06:22:27.708Z,76.47
2024-03-26T06:24:55.666Z,76.47
2024-03-26T06:27:23.733Z,76.57
2024-03-26T06:29:51.727Z,76.87
2024-03-26T06:32:19.755Z,77.04
2024-03-26T06:34:48.919Z,77.13
2024-03-26T06:37:16.755Z,77.10
2024-03-26T06:39:44.803Z,77.25
2024-03-26T06:42:12.773Z,77.23
2024-03-26T06:44:40.770Z,77.29
2024-03-26T06:47:09.323Z,77.41
2024-03-26T06:49:37.402Z,77.22
2024-03-26T06:52:05.935Z,77.11
2024-03-26T06:54:34.356Z,77.28
2024-03-26T06:57:02.233Z,77.51
2024-03-26T06:59:30.288Z,77.50
2024-03-26T07:02:01.259Z,77.32
2024-03-26T07:04:29.222Z,77.47
2024-03-26T07:06:57.321Z,77.51
2024-03-26T07:09:25.230Z,77.75
2024-03-26T07:11:53.357Z,77.95
2024-03-26T07:14:21.742Z,78.02
2024-03-26T07:16:49.647Z,77.88
2024-03-26T07:19:17.612Z,77.37
2024-03-26T07:21:46.984Z,77.02
2024-03-26T07:24:14.983Z,76.08
2024-03-26T07:26:42.855Z,75.87
2024-03-26T07:29:10.917Z,75.17
2024-03-26T07:31:38.783Z,74.77
2024-03-26T07:34:06.707Z,74.83
2024-03-26T07:36:34.615Z,74.48
2024-03-26T07:39:02.702Z,73.50
2024-03-26T07:41:31.218Z,71.96
2024-03-26T07:44:00.260Z,70.60
2024-03-26T07:46:28.156Z,70.02
2024-03-26T07:48:56.129Z,69.65
2024-03-26T07:51:26.138Z,68.97
2024-03-26T07:53:54.086Z,68.64
2024-03-26T07:56:22.045Z,67.21
2024-03-26T07:58:49.925Z,65.93
2024-03-26T08:01:18.558Z,65.40
2024-03-26T08:03:46.765Z,65.26
2024-03-26T08:06:14.735Z,64.74
2024-03-26T08:08:42.701Z,62.66
2024-03-26T08:11:14.542Z,62.01
2024-03-26T08:13:42.631Z,63.54
2024-03-26T08:16:11.162Z,63.31
2024-03-26T08:18:39.175Z,61.93
2024-03-26T08:21:08.182Z,61.91
2024-03-26T08:23:36.048Z,60.36
2024-03-26T08:26:04.003Z,60.85
2024-03-26T08:28:31.999Z,61.26
2024-03-26T08:31:00.044Z,59.06
2024-03-26T08:33:28.010Z,56.71
2024-03-26T08:35:56.011Z,56.28
2024-03-26T08:38:24.119Z,56.79
2024-03-26T08:40:52.117Z,57.67
2024-03-26T08:43:20.407Z,57.30
2024-03-26T08:45:49.491Z,57.61
2024-03-26T08:48:17.659Z,57.98
2024-03-26T08:50:45.528Z,57.79
2024-03-26T08:53:13.390Z,56.75
2024-03-26T08:55:41.257Z,57.46
2024-03-26T08:58:09.439Z,58.48
2024-03-26T09:00:37.499Z,58.54
2024-03-26T09:03:05.754Z,57.80
2024-03-26T09:05:34.148Z,57.61
2024-03-26T09:08:02.126Z,55.65
2024-03-26T09:10:30.600Z,55.66
2024-03-26T09:12:58.466Z,55.24
2024-03-26T09:15:26.360Z,55.39
2024-03-26T09:17:54.721Z,56.34
2024-03-26T09:20:22.583Z,55.16
2024-03-26T09:22:50.438Z,55.36
2024-03-26T09:25:18.618Z,55.30
2024-03-26T09:27:46.578Z,53.89
2024-03-26T09:30:16.098Z,54.17
2024-03-26T09:32:44.263Z,54.45
2024-03-26T09:35:12.429Z,54.71
2024-03-26T09:37:40.398Z,54.32
2024-03-26T09:40:08.780Z,53.97
2024-03-26T09:42:36.842Z,53.35
2024-03-26T09:45:07.409Z,53.28
2024-03-26T09:47:35.863Z,51.73
2024-03-26T09:50:04.764Z,50.22
2024-03-26T09:52:36.188Z,50.45
2024-03-26T09:55:07.434Z,51.20
2024-03-26T09:57:35.398Z,50.09
2024-03-26T10:00:04.177Z,49.53
2024-03-26T10:02:32.972Z,50.18
2024-03-26T10:05:02.783Z,49.45
2024-03-26T10:07:30.855Z,47.76
2024-03-26T10:09:58.924Z,48.26
2024-03-26T10:12:26.907Z,47.35
2024-03-26T10:14:55.298Z,47.01
2024-03-26T10:17:23.233Z,47.53
2024-03-26T10:19:51.101Z,47.03
2024-03-26T10:22:18.967Z,45.48
2024-03-26T10:24:46.837Z,45.75
2024-03-26T10:27:14.694Z,46.42
2024-03-26T10:29:42.665Z,45.09
2024-03-26T10:32:17.296Z,45.78
2024-03-26T10:34:48.942Z,45.96
2024-03-26T10:37:16.810Z,45.82
2024-03-26T10:39:46.124Z,45.00
2024-03-26T10:42:14.689Z,44.92
2024-03-26T10:44:42.762Z,43.87
2024-03-26T10:47:11.250Z,42.65
2024-03-26T10:49:39.823Z,40.83
2024-03-26T10:52:09.034Z,41.07
2024-03-26T10:54:37.503Z,42.87
2024-03-26T10:57:05.788Z,42.49
2024-03-26T10:59:33.637Z,42.82
2024-03-26T11:02:01.780Z,41.23
2024-03-26T11:04:30.188Z,41.19
2024-03-26T11:06:59.084Z,39.24
2024-03-26T11:09:27.043Z,40.70
2024-03-26T11:11:59.833Z,39.92
2024-03-26T11:14:30.556Z,38.98
2024-03-26T11:17:01.289Z,39.59
2024-03-26T11:19:30.072Z,39.58
2024-03-26T11:21:58.249Z,39.69
2024-03-26T11:24:36.349Z,38.60
2024-03-26T11:27:08.827Z,38.75
2024-03-26T11:29:37.618Z,38.96
2024-03-26T11:32:08.346Z,38.93
2024-03-26T11:34:36.828Z,38.51
2024-03-26T11:37:06.959Z,37.78
2024-03-26T11:39:35.542Z,36.73
2024-03-26T11:42:04.852Z,36.22
2024-03-26T11:44:33.420Z,36.29
2024-03-26T11:47:01.278Z,36.28
2024-03-26T11:49:29.445Z,36.10
2024-03-26T11:51:57.312Z,36.05
2024-03-26T11:54:25.281Z,35.17
2024-03-26T11:56:53.351Z,35.24
2024-03-26T11:59:25.320Z,35.38
2024-03-26T12:01:53.175Z,35.59
2024-03-26T12:04:21.975Z,35.92
2024-03-26T12:06:49.939Z,35.59
2024-03-26T12:09:17.897Z,35.76
2024-03-26T12:11:45.876Z,35.59
2024-03-26T12:14:13.730Z,36.11
2024-03-26T12:16:42.423Z,35.74
2024-03-26T12:19:10.280Z,35.50
2024-03-26T12:21:38.356Z,35.73
2024-03-26T12:24:06.854Z,35.06
2024-03-26T12:26:34.697Z,35.21
2024-03-26T12:29:02.888Z,34.22
2024-03-26T12:31:31.045Z,34.79
2024-03-26T12:34:11.196Z,34.16
2024-03-26T12:36:39.776Z,33.88
2024-03-26T12:39:12.062Z,33.32
2024-03-26T12:41:40.322Z,33.22
2024-03-26T12:44:12.876Z,33.51
2024-03-26T12:46:41.538Z,33.36
2024-03-26T12:49:09.442Z,33.50
2024-03-26T12:51:37.517Z,33.68
2024-03-26T12:54:07.240Z,32.74
2024-03-26T12:56:36.480Z,32.49
2024-03-26T12:59:06.242Z,31.98
2024-03-26T13:01:35.044Z,33.22
2024-03-26T13:04:02.888Z,32.57
2024-03-26T13:06:30.754Z,32.19
2024-03-26T13:08:58.622Z,32.53
2024-03-26T13:11:26.592Z,32.00
2024-03-26T13:13:54.581Z,31.87
2024-03-26T13:16:22.618Z,31.63
2024-03-26T13:18:50.488Z,32.00
2024-03-26T13:21:18.971Z,30.84
2024-03-26T13:23:46.831Z,31.08
2024-03-26T13:26:14.696Z,31.08
2024-03-26T13:28:42.768Z,30.28
2024-03-26T13:31:10.635Z,30.37
2024-03-26T13:33:38.930Z,31.80
2024-03-26T13:36:07.522Z,31.13
2024-03-26T13:38:37.464Z,31.08
2024-03-26T13:41:06.706Z,29.96
2024-03-26T13:43:34.566Z,30.27
2024-03-26T13:46:02.519Z,30.54
2024-03-26T13:48:30.703Z,30.81
2024-03-26T13:50:58.569Z,30.38
2024-03-26T13:53:26.450Z,30.61
2024-03-26T13:55:54.323Z,30.26
2024-03-26T13:58:22.121Z,29.31
2024-03-26T14:00:50.142Z,29.10
2024-03-26T14:03:17.997Z,29.07
2024-03-26T14:05:46.171Z,29.78
2024-03-26T14:08:14.042Z,30.06
2024-03-26T14:10:42.123Z,29.93
2024-03-26T14:13:09.975Z,28.94
2024-03-26T14:15:37.858Z,29.05
2024-03-26T14:18:06.028Z,29.88
2024-03-26T14:20:33.935Z,29.72
2024-03-26T14:23:01.949Z,29.68
2024-03-26T14:25:30.017Z,30.39
2024-03-26T14:27:57.884Z,30.93
2024-03-26T14:30:25.956Z,31.86
2024-03-26T14:32:53.917Z,32.55
2024-03-26T14:35:21.992Z,32.54
2024-03-26T14:37:51.611Z,32.89
2024-03-26T14:40:19.771Z,33.48
2024-03-26T14:42:47.634Z,33.33
2024-03-26T14:45:15.504Z,33.36
2024-03-26T14:47:43.468Z,32.55
2024-03-26T14:50:14.000Z,33.00
2024-03-26T14:52:41.968Z,31.91
2024-03-26T14:55:10.246Z,31.96
2024-03-26T14:57:38.513Z,31.06
2024-03-26T15:00:07.052Z,30.74
2024-03-26T15:02:34.961Z,30.27
2024-03-26T15:05:05.697Z,30.40
2024-03-26T15:07:33.662Z,30.29
2024-03-26T15:10:01.696Z,30.49
2024-03-26T15:12:29.701Z,30.10
2024-03-26T15:14:58.380Z,29.27
2024-03-26T15:17:26.308Z,29.63
2024-03-26T15:19:54.221Z,29.12
2024-03-26T15:22:22.286Z,28.84
2024-03-26T15:24:50.258Z,29.01
2024-03-26T15:27:18.118Z,28.71
2024-03-26T15:30:04.936Z,28.34
2024-03-26T15:32:32.896Z,28.51
2024-03-26T15:35:00.771Z,28.03
2024-03-26T15:37:28.728Z,27.88
2024-03-26T15:39:56.809Z,27.08
2024-03-26T15:42:24.684Z,27.56
2024-03-26T15:44:52.938Z,27.81
2024-03-26T15:47:20.833Z,27.82
2024-03-26T15:49:48.773Z,27.10
2024-03-26T15:52:16.740Z,28.10
2024-03-26T15:54:44.637Z,27.56
2024-03-26T15:57:12.511Z,27.51
2024-03-26T15:59:40.439Z,27.77
2024-03-26T16:02:08.307Z,27.93
2024-03-26T16:04:36.482Z,28.43
2024-03-26T16:07:04.861Z,29.03
2024-03-26T16:09:32.723Z,29.14
2024-03-26T16:12:05.313Z,29.25
2024-03-26T16:14:33.362Z,29.52
2024-03-26T16:17:01.338Z,30.31
2024-03-26T16:19:29.304Z,30.88
2024-03-26T16:21:57.290Z,31.20
2024-03-26T16:24:25.254Z,31.64
2024-03-26T16:26:53.210Z,32.06
2024-03-26T16:29:21.175Z,32.20
2024-03-26T16:31:49.038Z,32.84
2024-03-26T16:34:17.005Z,33.24
2024-03-26T16:36:46.511Z,33.36
2024-03-26T16:39:16.649Z,33.72
2024-03-26T16:41:47.358Z,34.24
2024-03-26T16:44:15.224Z,34.51
2024-03-26T16:46:44.013Z,35.19
2024-03-26T16:49:11.897Z,35.23
2024-03-26T16:51:39.845Z,35.67
2024-03-26T16:54:07.717Z,36.13
2024-03-26T16:56:36.414Z,36.20
2024-03-26T16:59:05.798Z,36.45
2024-03-26T17:01:33.880Z,36.79
2024-03-26T17:04:01.834Z,36.87
2024-03-26T17:06:29.806Z,37.08
2024-03-26T17:08:57.677Z,37.38
2024-03-26T17:11:28.239Z,37.45
2024-03-26T17:13:58.321Z,37.63
2024-03-26T17:16:26.280Z,38.21
2024-03-26T17:18:55.281Z,38.41
2024-03-26T17:21:23.153Z,38.63
2024-03-26T17:23:51.120Z,39.06
2024-03-26T17:26:19.170Z,39.18
2024-03-26T17:28:48.064Z,39.38
2024-03-26T17:31:16.239Z,39.62
2024-03-26T17:33:44.176Z,39.67
2024-03-26T17:36:12.071Z,39.55
2024-03-26T17:38:42.392Z,39.41
2024-03-26T17:41:10.270Z,39.29
2024-03-26T17:43:38.325Z,39.40
2024-03-26T17:46:06.295Z,39.77
2024-03-26T17:48:34.163Z,39.72
2024-03-26T17:51:02.541Z,39.57
2024-03-26T17:53:30.610Z,39.76
2024-03-26T17:55:58.683Z,39.95
2024-03-26T17:58:30.127Z,40.46
2024-03-26T18:01:09.364Z,40.32
2024-03-26T18:03:37.639Z,40.50
2024-03-26T18:06:05.911Z,40.58
2024-03-26T18:08:33.777Z,41.08
2024-03-26T18:11:01.766Z,41.09
2024-03-26T18:13:30.540Z,41.32
2024-03-26T18:16:03.166Z,41.06
2024-03-26T18:18:31.302Z,41.42
2024-03-26T18:21:01.101Z,41.79
2024-03-26T18:23:29.060Z,42.03
2024-03-26T18:26:15.049Z,42.23
2024-03-26T18:28:42.930Z,42.25
2024-03-26T18:31:12.008Z,42.39
2024-03-26T18:33:39.975Z,42.56
2024-03-26T18:36:07.944Z,42.48
2024-03-26T18:38:36.016Z,42.43
2024-03-26T18:41:06.525Z,42.52
2024-03-26T18:43:39.242Z,42.79
2024-03-26T18:46:13.287Z,43.01
2024-03-26T18:48:42.038Z,43.00
2024-03-26T18:51:10.394Z,42.96
2024-03-26T18:53:38.567Z,43.05
2024-03-26T18:56:08.670Z,43.26
2024-03-26T18:58:40.659Z,43.22
2024-03-26T19:01:18.766Z,43.49
2024-03-26T19:03:48.048Z,43.34
2024-03-26T19:06:16.975Z,43.48
2024-03-26T19:08:45.840Z,43.71
2024-03-26T19:11:14.208Z,43.81
2024-03-26T19:13:42.480Z,43.84
2024-03-26T19:16:11.161Z,44.11
2024-03-26T19:18:39.139Z,44.25
2024-03-26T19:21:07.828Z,43.98
2024-03-26T19:23:37.222Z,44.22
2024-03-26T19:26:06.879Z,44.18
2024-03-26T19:28:35.614Z,44.21
2024-03-26T19:31:07.025Z,44.33
2024-03-26T19:33:35.875Z,44.19
2024-03-26T19:36:08.023Z,44.38
2024-03-26T19:38:37.210Z,44.43
2024-03-26T19:41:08.355Z,44.49
2024-03-26T19:43:38.143Z,44.67
2024-03-26T19:46:10.349Z,44.50
2024-03-26T19:48:39.529Z,44.53
2024-03-26T19:51:08.832Z,44.47
2024-03-26T19:53:37.031Z,44.60
2024-03-26T19:56:12.518Z,44.83
2024-03-26T19:58:43.582Z,44.80
2024-03-26T20:01:12.166Z,44.76
2024-03-26T20:03:40.135Z,44.74
2024-03-26T20:06:12.910Z,44.89
2024-03-26T20:08:44.093Z,44.77
2024-03-26T20:11:12.633Z,44.99
2024-03-26T20:13:41.481Z,44.90
2024-03-26T20:16:09.601Z,44.93
2024-03-26T20:18:37.465Z,45.03
2024-03-26T20:21:07.055Z,45.16
2024-03-26T20:23:34.894Z,45.07
2024-03-26T20:26:04.762Z,45.01
2024-03-26T20:28:32.936Z,45.07
2024-03-26T20:31:12.826Z,45.14
2024-03-26T20:33:42.082Z,45.15
2024-03-26T20:36:16.526Z,45.19
2024-03-26T20:38:45.366Z,45.33
2024-03-26T20:41:13.239Z,45.40
2024-03-26T20:43:41.512Z,45.31
2024-03-26T20:46:10.409Z,45.47
2024-03-26T20:48:38.602Z,45.55
2024-03-26T20:51:10.547Z,45.71
2024-03-26T20:53:39.220Z,45.49
2024-03-26T20:56:08.890Z,45.50
2024-03-26T20:58:36.911Z,45.66
2024-03-26T21:01:05.273Z,45.69
2024-03-26T21:03:36.314Z,45.80
2024-03-26T21:06:06.262Z,46.01
2024-03-26T21:08:35.347Z,46.01
2024-03-26T21:11:13.089Z,45.90
2024-03-26T21:13:41.348Z,45.94
2024-03-26T21:16:12.276Z,46.24
2024-03-26T21:18:48.937Z,46.33
2024-03-26T21:21:21.304Z,46.32
2024-03-26T21:23:49.962Z,46.07
2024-03-26T21:26:19.093Z,46.22
2024-03-26T21:28:47.501Z,46.19
2024-03-26T21:31:15.411Z,46.05
2024-03-26T21:33:43.315Z,46.12
2024-03-26T21:36:11.943Z,46.36
2024-03-26T21:38:39.917Z,46.48
2024-03-26T21:41:08.550Z,46.61
2024-03-26T21:43:36.592Z,46.37
2024-03-26T21:46:05.308Z,46.32
2024-03-26T21:48:33.519Z,46.32
2024-03-26T21:51:03.229Z,46.18
2024-03-26T21:53:31.199Z,46.29
2024-03-26T21:56:04.120Z,46.44
2024-03-26T21:58:32.151Z,46.39
2024-03-26T22:01:09.736Z,46.58
2024-03-26T22:03:38.015Z,46.67
2024-03-26T22:06:07.940Z,46.84
2024-03-26T22:08:35.807Z,47.07
2024-03-26T22:11:03.866Z,47.37
2024-03-26T22:13:32.456Z,47.43
2024-03-26T22:16:01.749Z,47.83
2024-03-26T22:18:30.435Z,48.12
2024-03-26T22:21:00.752Z,48.44
2024-03-26T22:23:30.454Z,48.23
2024-03-26T22:26:03.842Z,48.85
2024-03-26T22:28:31.730Z,49.01
2024-03-26T22:31:03.276Z,48.85
2024-03-26T22:33:31.325Z,48.64
2024-03-26T22:35:59.315Z,48.58
2024-03-26T22:38:27.287Z,48.65
2024-03-26T22:40:56.381Z,48.83
2024-03-26T22:43:25.162Z,48.98
2024-03-26T22:45:59.907Z,48.83
2024-03-26T22:48:28.470Z,49.16
2024-03-26T22:50:57.434Z,48.89
2024-03-26T22:53:25.845Z,49.23
2024-03-26T22:56:07.126Z,49.62
2024-03-26T22:58:35.087Z,49.73
2024-03-26T23:01:05.747Z,49.71
2024-03-26T23:03:33.795Z,49.69
2024-03-26T23:06:02.992Z,50.10
2024-03-26T23:08:31.258Z,49.85
2024-03-26T23:10:59.234Z,49.95
2024-03-26T23:13:27.913Z,49.86
2024-03-26T23:16:05.696Z,49.57
2024-03-26T23:18:33.681Z,49.56
2024-03-26T23:21:03.799Z,49.47
2024-03-26T23:23:31.661Z,49.45
2024-03-26T23:25:59.656Z,49.45
2024-03-26T23:28:27.596Z,49.61
2024-03-26T23:30:55.462Z,49.48
2024-03-26T23:33:23.332Z,49.49
2024-03-26T23:35:51.295Z,49.32
2024-03-26T23:38:19.175Z,49.43
2024-03-26T23:40:50.205Z,49.33
2024-03-26T23:43:18.384Z,49.36
2024-03-26T23:45:46.246Z,49.38
2024-03-26T23:48:14.308Z,49.45
2024-03-26T23:50:42.180Z,49.23
2024-03-26T23:53:10.666Z,49.34
2024-03-26T23:55:39.034Z,49.28
2024-03-26T23:58:06.998Z,49.15
